Time;durP1;ratioP1;P1;durP2;ratioP2;P2;SDS_P1;SDS_P2;PMS_P1;PMS_P2;Temp;Humidity;BMP_temperature;BMP_pressure;BME280_temperature;BME280_humidity;BME280_pressure;Samples;Min_cycle;Max_cycle;Signal;HPM_P1;HPM_P2
2022/12/28 00:01:59;;;;;;;;;;;;;;;25.93;43.49;95050.69;4950586;28;9290;-64
2022/12/28 00:04:27;;;;;;;;;;;;;;;25.95;43.89;95052.94;4962399;28;7464;-64
2022/12/28 00:07:02;;;;;;;;;;;;;;;25.91;43.90;95044.16;4965689;28;7276;-64
2022/12/28 00:09:29;;;;;;;;;;;;;;;25.92;43.33;95043.66;4951957;28;7189;-63
2022/12/28 00:11:55;;;;;;;;;;;;;;;25.93;43.18;95034.13;4969018;28;7030;-63
2022/12/28 00:14:28;;;;;;;;;;;;;;;25.93;44.19;95038.88;4949555;29;7430;-64
2022/12/28 00:16:59;;;;;;;;;;;;;;;25.93;43.69;95028.63;4964504;28;7242;-61
2022/12/28 00:19:31;;;;;;;;;;;;;;;25.91;43.69;95033.88;4953525;28;7114;-62
2022/12/28 00:22:10;;;;;;;;;;;;;;;25.88;44.20;95031.38;4952217;28;8233;-62
2022/12/28 00:25:07;;;;;;;;;;;;;;;25.88;44.45;95032.13;4968514;28;7283;-61
2022/12/28 00:27:50;;;;;;;;;;;;;;;25.86;43.63;95029.09;4935739;29;8590;-62
2022/12/28 00:30:17;;;;;;;;;;;;;;;25.86;43.82;95029.09;4961702;28;7339;-62
2022/12/28 00:33:03;;;;;;;;;;;;;;;25.87;43.89;95025.09;4962366;28;7548;-62
2022/12/28 00:35:29;;;;;;;;;;;;;;;25.87;44.00;95021.59;4933620;29;7046;-62
2022/12/28 00:38:16;;;;;;;;;;;;;;;25.85;43.63;95013.06;4942526;28;7515;-61
2022/12/28 00:40:43;;;;;;;;;;;;;;;25.79;44.29;95010.31;4952234;28;9580;-61
2022/12/28 00:43:11;;;;;;;;;;;;;;;25.78;44.07;95011.56;4937709;28;7262;-60
2022/12/28 00:45:37;;;;;;;;;;;;;;;25.82;43.82;95014.81;4954189;28;7381;-60
2022/12/28 00:48:12;;;;;;;;;;;;;;;25.81;43.67;95010.56;4941781;28;7107;-62
2022/12/28 00:50:49;;;;;;;;;;;;;;;25.82;43.98;95009.31;4956904;28;7167;-62
2022/12/28 00:53:16;;;;;;;;;;;;;;;25.83;44.54;95010.81;4931514;28;7459;-61
2022/12/28 00:55:52;;;;;;;;;;;;;;;25.83;44.35;95008.06;4939409;28;7259;-61
2022/12/28 00:58:27;;;;;;;;;;;;;;;25.84;43.91;95012.31;4949254;28;7298;-61
2022/12/28 01:01:03;;;;;;;;;;;;;;;25.84;44.21;95008.81;4950822;28;7270;-61
2022/12/28 01:03:34;;;;;;;;;;;;;;;25.80;43.79;94998.03;4973986;28;7186;-61
2022/12/28 01:06:14;;;;;;;;;;;;;;;25.79;43.77;95004.81;4958109;28;9654;-62
2022/12/28 01:08:59;;;;;;;;;;;;;;;25.79;43.96;94995.78;4972382;28;7155;-62
2022/12/28 01:11:29;;;;;;;;;;;;;;;25.78;44.49;94995.03;4954949;28;7279;-61
2022/12/28 01:14:24;;;;;;;;;;;;;;;25.77;44.74;94996.28;4958880;28;9444;-61
2022/12/28 01:16:55;;;;;;;;;;;;;;;25.76;43.90;94992.00;4955037;28;7078;-62
2022/12/28 01:19:40;;;;;;;;;;;;;;;25.75;44.41;95001.50;4955879;28;7217;-61
2022/12/28 01:22:27;;;;;;;;;;;;;;;25.75;44.69;94995.28;4964700;28;8538;-62
2022/12/28 01:24:56;;;;;;;;;;;;;;;25.74;44.52;94989.00;4979204;28;7342;-61
2022/12/28 01:27:29;;;;;;;;;;;;;;;25.73;43.82;94987.47;4963722;28;10390;-61
2022/12/28 01:30:13;;;;;;;;;;;;;;;25.70;44.87;94980.22;4971903;28;7065;-61
2022/12/28 01:32:58;;;;;;;;;;;;;;;25.71;44.08;94975.47;4954114;28;7387;-61
2022/12/28 01:35:35;;;;;;;;;;;;;;;25.69;44.65;94977.97;4955769;28;7890;-62
2022/12/28 01:38:09;;;;;;;;;;;;;;;25.69;44.40;94975.97;4969800;28;9035;-61
2022/12/28 01:40:35;;;;;;;;;;;;;;;25.71;44.31;94973.47;4971404;28;7291;-61
2022/12/28 01:43:08;;;;;;;;;;;;;;;25.70;44.08;94973.97;4955505;28;7265;-62
2022/12/28 01:45:34;;;;;;;;;;;;;;;25.69;44.09;94981.47;4970706;28;7109;-61
2022/12/28 01:48:19;;;;;;;;;;;;;;;25.68;44.79;94979.22;4970720;28;7404;-62
2022/12/28 01:50:54;;;;;;;;;;;;;;;25.69;44.30;94986.97;4952599;28;7028;-61
2022/12/28 01:53:21;;;;;;;;;;;;;;;25.72;44.53;94979.72;4956257;28;7138;-61
2022/12/28 01:55:49;;;;;;;;;;;;;;;25.72;44.83;94985.25;4954023;28;7142;-62
2022/12/28 01:58:32;;;;;;;;;;;;;;;25.71;44.88;94976.22;4952563;28;8044;-61
2022/12/28 02:01:24;;;;;;;;;;;;;;;25.72;44.25;94974.22;4955628;28;8622;-61
2022/12/28 02:03:52;;;;;;;;;;;;;;;25.71;44.21;94978.25;4970567;28;7099;-61
2022/12/28 02:06:27;;;;;;;;;;;;;;;25.70;44.74;94971.22;4954619;28;7077;-59
2022/12/28 02:09:31;;;;;;;;;;;;;;;25.71;43.93;94961.72;4970325;28;7245;-61
2022/12/28 02:12:00;;;;;;;;;;;;;;;25.70;44.15;94957.44;4957259;28;8598;-60
2022/12/28 02:14:27;;;;;;;;;;;;;;;25.69;44.63;94953.16;4969739;28;9086;-62
2022/12/28 02:16:57;;;;;;;;;;;;;;;25.68;44.55;94957.94;4955879;28;7271;-62
2022/12/28 02:19:40;;;;;;;;;;;;;;;25.70;44.10;94960.94;4952687;28;7301;-61
2022/12/28 02:22:21;;;;;;;;;;;;;;;25.69;44.50;94959.44;4950276;28;7214;-61
2022/12/28 02:25:02;;;;;;;;;;;;;;;25.68;45.07;94946.91;4963938;28;7029;-61
2022/12/28 02:27:53;;;;;;;;;;;;;;;25.68;44.54;94946.16;4963725;28;7840;-62
2022/12/28 02:30:21;;;;;;;;;;;;;;;25.68;44.33;94946.91;4948277;28;7143;-58
2022/12/28 02:33:04;;;;;;;;;;;;;;;25.69;43.91;94942.91;4961915;28;7310;-61
2022/12/28 02:35:47;;;;;;;;;;;;;;;25.70;44.33;94940.91;4969829;28;7060;-62
2022/12/28 02:38:33;;;;;;;;;;;;;;;25.68;44.67;94932.38;4956043;28;7058;-61
2022/12/28 02:41:14;;;;;;;;;;;;;;;25.71;44.61;94936.91;4953036;28;7502;-62
2022/12/28 02:43:42;;;;;;;;;;;;;;;25.69;44.46;94936.63;4969497;28;7244;-61
2022/12/28 02:52:54;;;;;;;;;;;;;;;25.63;44.06;94933.13;4913683;29;7379;-62
2022/12/28 02:56:08;;;;;;;;;;;;;;;25.65;44.93;94934.13;4903804;29;7081;-61
2022/12/28 02:58:57;;;;;;;;;;;;;;;25.69;45.03;94920.84;4875165;29;7335;-61
2022/12/28 03:05:16;;;;;;;;;;;;;;;25.70;44.78;94913.34;4879192;29;9743;-61
2022/12/28 03:08:19;;;;;;;;;;;;;;;25.68;44.11;94902.06;4860892;29;7112;-61
2022/12/28 03:11:30;;;;;;;;;;;;;;;25.64;45.09;94896.81;4871749;29;7494;-61
2022/12/28 03:14:17;;;;;;;;;;;;;;;25.64;44.58;94902.34;4860841;29;7716;-61
2022/12/28 03:31:55;;;;;;;;;;;;;;;25.64;44.55;94901.56;4915390;29;7256;-62
2022/12/28 03:34:37;;;;;;;;;;;;;;;25.62;44.72;94902.06;4918806;28;7044;-60
2022/12/28 03:37:15;;;;;;;;;;;;;;;25.62;44.60;94899.31;4953994;28;8697;-61
2022/12/28 03:39:55;;;;;;;;;;;;;;;25.63;44.64;94891.78;4961494;28;7404;-62
2022/12/28 03:45:25;;;;;;;;;;;;;;;25.62;44.35;94882.78;4953328;28;7171;-63
2022/12/28 03:47:59;;;;;;;;;;;;;;;25.64;44.86;94885.03;4968775;28;7307;-63
2022/12/28 03:50:37;;;;;;;;;;;;;;;25.63;44.62;94881.53;4945408;28;7285;-63
2022/12/28 03:53:35;;;;;;;;;;;;;;;25.63;44.50;94875.25;4952873;28;7852;-63
2022/12/28 03:56:47;;;;;;;;;;;;;;;25.64;44.73;94876.78;4968682;28;7161;-63
2022/12/28 03:59:22;;;;;;;;;;;;;;;25.63;44.43;94869.75;4970508;28;9445;-64
2022/12/28 04:01:48;;;;;;;;;;;;;;;25.65;44.50;94868.00;4976198;28;7265;-63
2022/12/28 04:04:28;;;;;;;;;;;;;;;25.63;44.73;94870.50;4971906;28;7089;-62
2022/12/28 04:07:01;;;;;;;;;;;;;;;25.64;44.29;94874.03;4963056;28;7042;-62
2022/12/28 04:09:41;;;;;;;;;;;;;;;25.62;44.35;94866.25;4963104;28;7558;-63
2022/12/28 04:12:07;;;;;;;;;;;;;;;25.62;44.64;94869.00;4968639;28;8314;-61
2022/12/28 04:14:35;;;;;;;;;;;;;;;25.61;45.05;94864.75;4973904;28;7286;-64
2022/12/28 04:17:01;;;;;;;;;;;;;;;25.61;44.60;94859.25;4974119;28;8242;-63
2022/12/28 04:19:37;;;;;;;;;;;;;;;25.62;44.79;94860.72;4978156;28;7187;-62
2022/12/28 04:22:38;;;;;;;;;;;;;;;25.62;43.98;94854.50;4973112;28;7838;-63
2022/12/28 04:25:14;;;;;;;;;;;;;;;25.62;44.34;94849.72;4896273;29;9292;-62
2022/12/28 04:27:55;;;;;;;;;;;;;;;25.63;44.18;94839.44;4899808;29;7301;-62
2022/12/28 04:30:26;;;;;;;;;;;;;;;25.63;44.44;94837.47;4895941;29;8160;-63
2022/12/28 04:32:56;;;;;;;;;;;;;;;25.63;44.18;94842.97;4899892;29;7562;-63
2022/12/28 04:35:41;;;;;;;;;;;;;;;25.63;44.79;94845.72;4894889;29;9550;-63
2022/12/28 04:38:08;;;;;;;;;;;;;;;25.64;44.47;94847.25;4900262;29;7124;-63
2022/12/28 04:40:39;;;;;;;;;;;;;;;25.63;44.51;94842.97;4902392;29;7208;-63
2022/12/28 04:43:05;;;;;;;;;;;;;;;25.62;44.00;94838.69;4898203;29;7333;-63
2022/12/28 04:45:31;;;;;;;;;;;;;;;25.63;44.82;94831.19;4904283;29;9363;-63
2022/12/28 04:47:57;;;;;;;;;;;;;;;25.62;44.45;94833.19;4882747;29;6996;-63
2022/12/28 04:50:25;;;;;;;;;;;;;;;25.64;44.84;94838.22;4886923;29;7283;-63
2022/12/28 04:52:54;;;;;;;;;;;;;;;25.63;44.58;94831.94;4898459;29;8049;-62
2022/12/28 04:55:34;;;;;;;;;;;;;;;25.63;44.23;94820.94;4897553;29;7183;-64
2022/12/28 04:58:05;;;;;;;;;;;;;;;25.61;44.24;94820.69;4896956;28;7320;-63
2022/12/28 05:00:39;;;;;;;;;;;;;;;25.63;44.06;94820.19;4968450;28;7029;-62
2022/12/28 05:03:09;;;;;;;;;;;;;;;25.62;44.90;94816.66;4971358;28;7209;-63
2022/12/28 05:05:38;;;;;;;;;;;;;;;25.61;44.32;94812.41;4971452;28;7012;-62
2022/12/28 05:08:19;;;;;;;;;;;;;;;25.62;44.81;94815.94;4954193;28;7026;-63
2022/12/28 05:10:59;;;;;;;;;;;;;;;25.62;44.25;94811.16;4971717;28;7437;-63
2022/12/28 05:13:27;;;;;;;;;;;;;;;25.62;44.05;94811.16;4954545;28;7275;-63
2022/12/28 05:16:25;;;;;;;;;;;;;;;25.63;44.93;94807.16;4956060;28;7101;-64
2022/12/28 05:18:52;;;;;;;;;;;;;;;25.63;44.23;94806.41;4956114;28;10800;-60
2022/12/28 05:21:30;;;;;;;;;;;;;;;25.56;44.60;94807.66;4972285;28;9128;-63
2022/12/28 05:24:07;;;;;;;;;;;;;;;25.60;44.76;94807.41;4970549;28;7311;-63
2022/12/28 05:26:34;;;;;;;;;;;;;;;25.61;44.35;94803.41;4956151;28;7041;-63
2022/12/28 05:29:02;;;;;;;;;;;;;;;25.58;44.29;94807.91;4971172;28;9424;-61
2022/12/28 05:31:29;;;;;;;;;;;;;;;25.59;44.46;94803.91;4956348;28;7364;-61
2022/12/28 05:34:01;;;;;;;;;;;;;;;25.59;44.33;94801.16;4971785;28;7031;-64
2022/12/28 05:36:38;;;;;;;;;;;;;;;25.58;44.72;94804.41;4970557;28;7560;-62
2022/12/28 05:39:05;;;;;;;;;;;;;;;25.59;44.30;94805.91;4968367;28;7080;-63
2022/12/28 05:41:31;;;;;;;;;;;;;;;25.59;43.81;94800.41;4956140;28;8257;-63
2022/12/28 05:43:58;;;;;;;;;;;;;;;25.59;44.04;94803.91;4963932;28;7113;-62
2022/12/28 05:46:31;;;;;;;;;;;;;;;25.57;44.59;94808.41;4955613;28;7284;-63
2022/12/28 05:49:01;;;;;;;;;;;;;;;25.60;44.81;94804.66;4951052;28;9624;-64
2022/12/28 05:51:31;;;;;;;;;;;;;;;25.59;44.22;94803.16;4955951;28;7125;-62
2022/12/28 05:53:59;;;;;;;;;;;;;;;25.58;44.37;94802.38;4951609;28;7393;-62
2022/12/28 05:56:39;;;;;;;;;;;;;;;25.59;44.80;94803.91;4970215;28;9681;-64
2022/12/28 05:59:07;;;;;;;;;;;;;;;25.58;44.47;94813.41;4951043;28;10341;-62
2022/12/28 06:01:38;;;;;;;;;;;;;;;25.60;44.19;94810.91;4956753;28;8987;-62
2022/12/28 06:04:07;;;;;;;;;;;;;;;25.60;44.30;94807.41;4952268;28;7570;-62
2022/12/28 06:06:36;;;;;;;;;;;;;;;25.60;43.93;94807.41;4952982;28;8663;-60
2022/12/28 06:09:04;;;;;;;;;;;;;;;25.58;44.21;94802.38;4969499;28;7631;-64
2022/12/28 06:11:31;;;;;;;;;;;;;;;25.58;44.21;94810.66;4969333;28;8263;-63
2022/12/28 06:14:04;;;;;;;;;;;;;;;25.57;44.29;94809.16;4968165;28;9720;-62
2022/12/28 06:16:37;;;;;;;;;;;;;;;25.57;44.14;94814.69;4953422;28;7312;-63
2022/12/28 06:19:09;;;;;;;;;;;;;;;25.57;44.41;94817.44;4967120;28;9349;-61
2022/12/28 06:21:38;;;;;;;;;;;;;;;25.56;44.14;94821.41;4969106;28;7132;-63
2022/12/28 06:24:13;;;;;;;;;;;;;;;25.53;44.00;94811.41;4952501;28;7176;-63
2022/12/28 06:26:40;;;;;;;;;;;;;;;25.54;44.03;94825.91;4965467;28;7258;-61
2022/12/28 06:29:06;;;;;;;;;;;;;;;25.54;44.25;94826.69;4952715;28;9238;-64
2022/12/28 06:31:43;;;;;;;;;;;;;;;25.51;44.39;94813.94;4949742;28;8796;-64
2022/12/28 06:34:10;;;;;;;;;;;;;;;25.53;44.05;94819.69;4970285;28;8332;-63
2022/12/28 06:36:42;;;;;;;;;;;;;;;25.54;43.94;94821.19;4948576;28;7255;-62
2022/12/28 06:39:14;;;;;;;;;;;;;;;25.53;44.53;94808.66;4965526;28;8099;-64
2022/12/28 06:41:45;;;;;;;;;;;;;;;25.53;44.97;94816.94;4966416;28;7346;-63
2022/12/28 06:44:12;;;;;;;;;;;;;;;25.55;44.25;94808.16;4949848;28;7263;-64
2022/12/28 06:46:38;;;;;;;;;;;;;;;25.56;44.41;94801.38;4950762;28;7275;-62
2022/12/28 06:49:07;;;;;;;;;;;;;;;25.55;44.05;94803.41;4951766;28;7038;-63
2022/12/28 06:51:39;;;;;;;;;;;;;;;25.55;44.00;94800.66;4966907;28;7208;-62
2022/12/28 06:54:06;;;;;;;;;;;;;;;25.55;44.21;94806.16;4964173;28;8598;-63
2022/12/28 06:57:03;;;;;;;;;;;;;;;25.59;44.30;94801.16;4966329;28;8965;-63
2022/12/28 06:59:39;;;;;;;;;;;;;;;25.60;44.16;94797.13;4929214;28;9029;-61
2022/12/28 07:02:08;;;;;;;;;;;;;;;25.62;43.78;94799.41;4929202;28;9371;-63
2022/12/28 07:04:35;;;;;;;;;;;;;;;25.62;44.32;94802.88;4928990;29;7840;-63
2022/12/28 07:07:10;;;;;;;;;;;;;;;25.58;44.93;94805.16;4934266;28;7221;-61
2022/12/28 07:10:07;;;;;;;;;;;;;;;25.62;43.87;94810.41;4922110;28;7280;-64
2022/12/28 07:12:37;;;;;;;;;;;;;;;25.63;44.50;94801.66;4873547;29;7037;-63
2022/12/28 07:15:05;;;;;;;;;;;;;;;25.63;43.96;94801.66;4871751;29;7267;-64
2022/12/28 07:17:43;;;;;;;;;;;;;;;25.68;43.93;94795.41;4875661;29;7103;-63
2022/12/28 07:20:10;;;;;;;;;;;;;;;25.65;44.88;94793.63;4873712;29;7412;-62
2022/12/28 07:22:36;;;;;;;;;;;;;;;25.65;44.90;94792.88;4875012;29;7305;-62
2022/12/28 07:25:16;;;;;;;;;;;;;;;25.71;44.87;94797.13;4877843;29;7039;-63
2022/12/28 07:27:54;;;;;;;;;;;;;;;25.69;44.48;94802.38;4873140;29;7119;-63
2022/12/28 07:30:46;;;;;;;;;;;;;;;25.68;43.33;94798.16;4870036;29;6869;-63
2022/12/28 07:33:21;;;;;;;;;;;;;;;25.64;44.34;94797.66;4875100;29;8911;-64
2022/12/28 07:36:03;;;;;;;;;;;;;;;25.62;43.97;94800.13;4880762;29;7260;-63
2022/12/28 07:38:29;;;;;;;;;;;;;;;25.68;43.61;94798.16;4893401;29;7294;-64
2022/12/28 07:41:06;;;;;;;;;;;;;;;25.70;42.77;94795.63;4888137;29;7531;-63
2022/12/28 07:43:33;;;;;;;;;;;;;;;25.71;42.57;94796.41;4887491;29;9334;-60
2022/12/28 07:46:20;;;;;;;;;;;;;;;25.66;42.89;94800.66;4890955;29;7033;-62
2022/12/28 07:48:54;;;;;;;;;;;;;;;25.62;43.73;94789.13;4921546;28;7073;-60
2022/12/28 07:51:26;;;;;;;;;;;;;;;25.63;43.66;94785.13;4953042;28;7043;-61
2022/12/28 07:54:01;;;;;;;;;;;;;;;25.62;43.22;94789.13;4967551;28;7022;-62
2022/12/28 07:56:29;;;;;;;;;;;;;;;25.65;43.57;94784.59;4949374;28;7091;-63
2022/12/28 07:59:05;;;;;;;;;;;;;;;25.70;43.19;94787.38;4950676;28;7429;-62
2022/12/28 08:01:39;;;;;;;;;;;;;;;25.73;43.39;94789.09;4951212;28;7965;-63
2022/12/28 08:04:16;;;;;;;;;;;;;;;25.76;43.94;94776.34;4951001;29;9136;-62
2022/12/28 08:06:44;;;;;;;;;;;;;;;25.79;42.60;94781.63;4951838;28;9077;-63
2022/12/28 08:09:16;;;;;;;;;;;;;;;25.82;43.52;94771.56;4946964;29;6852;-62
2022/12/28 08:11:51;;;;;;;;;;;;;;;25.85;43.90;94771.31;4964435;28;9224;-61
2022/12/28 08:14:19;;;;;;;;;;;;;;;25.88;43.52;94772.34;4963307;28;7368;-64
2022/12/28 08:16:52;;;;;;;;;;;;;;;25.89;42.89;94768.31;4964060;28;7252;-63
2022/12/28 08:19:50;;;;;;;;;;;;;;;25.89;42.42;94769.06;4964655;28;7223;-64
2022/12/28 08:22:37;;;;;;;;;;;;;;;25.84;42.58;94756.03;4929518;29;7303;-63
2022/12/28 08:25:12;;;;;;;;;;;;;;;25.83;43.51;94765.56;4912623;29;7246;-63
2022/12/28 08:27:39;;;;;;;;;;;;;;;25.85;43.58;94760.31;4915621;29;7869;-65
2022/12/28 08:30:43;;;;;;;;;;;;;;;25.86;42.71;94764.53;4915012;29;7216;-63
2022/12/28 08:33:27;;;;;;;;;;;;;;;25.88;42.89;94756.53;4911894;29;7042;-65
2022/12/28 08:36:12;;;;;;;;;;;;;;;25.91;42.95;94761.03;4898449;29;7459;-63
2022/12/28 08:38:48;;;;;;;;;;;;;;;25.92;43.29;94757.03;4896310;29;8241;-65
2022/12/28 08:41:18;;;;;;;;;;;;;;;25.94;42.72;94748.25;4900198;29;7209;-64
2022/12/28 08:43:45;;;;;;;;;;;;;;;25.92;42.89;94740.50;4916795;29;7281;-63
2022/12/28 08:46:15;;;;;;;;;;;;;;;25.93;42.78;94733.72;4911694;29;7056;-63
2022/12/28 08:48:56;;;;;;;;;;;;;;;25.96;42.95;94729.22;4912496;29;7052;-63
2022/12/28 08:51:26;;;;;;;;;;;;;;;25.96;42.92;94729.97;4915575;29;9071;-64
2022/12/28 08:54:00;;;;;;;;;;;;;;;25.96;42.61;94729.97;4903925;29;7103;-64
2022/12/28 08:56:29;;;;;;;;;;;;;;;25.98;43.13;94726.69;4908279;29;7036;-64
2022/12/28 08:58:56;;;;;;;;;;;;;;;25.98;42.36;94727.47;4919614;29;7454;-64
2022/12/28 09:01:27;;;;;;;;;;;;;;;25.98;42.60;94723.94;4936964;28;7284;-62
2022/12/28 09:03:58;;;;;;;;;;;;;;;26.00;42.89;94722.19;4955156;28;7235;-62
2022/12/28 09:06:30;;;;;;;;;;;;;;;25.99;43.02;94722.69;4965600;28;7366;-63
2022/12/28 09:09:05;;;;;;;;;;;;;;;26.00;43.07;94730.47;4971207;28;7023;-63
2022/12/28 09:11:37;;;;;;;;;;;;;;;26.02;42.93;94732.69;4969899;28;9066;-64
2022/12/28 09:14:29;;;;;;;;;;;;;;;26.01;42.67;94742.97;4955291;28;9005;-63
2022/12/28 09:16:59;;;;;;;;;;;;;;;26.02;42.64;94738.97;4970668;28;9010;-64
2022/12/28 09:19:29;;;;;;;;;;;;;;;26.03;42.94;94726.66;4955524;28;7233;-63
2022/12/28 09:21:55;;;;;;;;;;;;;;;26.04;42.58;94728.19;4957175;28;7268;-63
2022/12/28 09:24:51;;;;;;;;;;;;;;;26.07;42.44;94724.44;4971204;28;7217;-64
2022/12/28 09:27:17;;;;;;;;;;;;;;;26.03;42.91;94729.44;4954753;28;7229;-62
2022/12/28 09:29:43;;;;;;;;;;;;;;;26.05;42.77;94726.94;4964660;28;7199;-64
2022/12/28 09:32:15;;;;;;;;;;;;;;;26.04;43.18;94717.16;4956374;28;7666;-62
2022/12/28 09:34:44;;;;;;;;;;;;;;;26.06;42.61;94722.91;4958503;28;7106;-64
2022/12/28 09:37:10;;;;;;;;;;;;;;;26.08;42.95;94725.16;4955836;28;7080;-64
2022/12/28 09:39:46;;;;;;;;;;;;;;;26.07;42.62;94723.66;4970651;28;7014;-64
2022/12/28 09:42:22;;;;;;;;;;;;;;;26.08;42.67;94719.66;4959103;28;7280;-62
2022/12/28 09:45:03;;;;;;;;;;;;;;;26.09;43.40;94710.16;4966662;28;6923;-62
2022/12/28 09:47:57;;;;;;;;;;;;;;;26.06;43.34;94711.88;4967835;28;7037;-63
2022/12/28 09:50:28;;;;;;;;;;;;;;;26.02;43.52;94705.88;4952762;28;7048;-63
2022/12/28 09:53:16;;;;;;;;;;;;;;;26.00;43.69;94702.91;4951096;28;7449;-63
2022/12/28 09:55:53;;;;;;;;;;;;;;;26.02;43.50;94700.38;4966394;28;7074;-63
2022/12/28 09:58:20;;;;;;;;;;;;;;;26.03;43.08;94701.13;4949478;28;9057;-63
2022/12/28 10:00:57;;;;;;;;;;;;;;;26.05;43.66;94698.63;4966408;28;9290;-63
2022/12/28 10:03:44;;;;;;;;;;;;;;;26.04;42.78;94684.09;4967111;28;9405;-62
2022/12/28 10:06:10;;;;;;;;;;;;;;;26.04;43.18;94686.84;4954080;28;7293;-62
2022/12/28 10:08:46;;;;;;;;;;;;;;;26.04;43.47;94688.84;4954880;28;6937;-62
2022/12/28 10:11:19;;;;;;;;;;;;;;;26.05;43.25;94677.31;4950174;28;8230;-63
2022/12/28 10:13:59;;;;;;;;;;;;;;;26.06;43.44;94678.06;4965535;28;7294;-62
2022/12/28 10:16:33;;;;;;;;;;;;;;;26.04;43.29;94675.81;4957150;28;7015;-62
2022/12/28 10:19:14;;;;;;;;;;;;;;;26.02;43.55;94661.78;4969244;28;7264;-62
2022/12/28 10:21:57;;;;;;;;;;;;;;;26.06;43.21;94661.50;4960685;28;7449;-62
2022/12/28 10:24:35;;;;;;;;;;;;;;;26.07;43.49;94658.28;4954209;28;7021;-62
2022/12/28 10:27:11;;;;;;;;;;;;;;;26.11;43.70;94652.50;4955109;28;7263;-62
2022/12/28 10:29:46;;;;;;;;;;;;;;;26.11;43.37;94647.00;4950381;28;7064;-62
2022/12/28 10:32:12;;;;;;;;;;;;;;;26.09;43.30;94653.03;4952667;28;9243;-62
2022/12/28 10:34:58;;;;;;;;;;;;;;;26.10;43.54;94643.47;4965255;28;7089;-63
2022/12/28 10:37:43;;;;;;;;;;;;;;;26.12;43.57;94640.97;4969540;28;7314;-63
2022/12/28 10:40:25;;;;;;;;;;;;;;;26.10;43.14;94637.22;4968663;28;7274;-63
2022/12/28 10:42:54;;;;;;;;;;;;;;;26.11;42.80;94625.69;4965376;28;7421;-63
2022/12/28 10:45:36;;;;;;;;;;;;;;;26.11;43.16;94630.47;4953533;28;7279;-63
2022/12/28 10:48:13;;;;;;;;;;;;;;;26.11;42.62;94625.69;4976217;28;9793;-62
2022/12/28 10:50:45;;;;;;;;;;;;;;;26.13;43.19;94625.19;4969832;28;7306;-63
2022/12/28 10:53:42;;;;;;;;;;;;;;;26.13;42.51;94623.19;4969248;28;7028;-63
2022/12/28 10:56:50;;;;;;;;;;;;;;;26.13;43.27;94617.66;4968373;28;7289;-62
2022/12/28 10:59:29;;;;;;;;;;;;;;;26.17;42.49;94623.66;4952287;28;7540;-63
2022/12/28 11:02:39;;;;;;;;;;;;;;;26.16;43.06;94610.38;4932827;28;7126;-62
2022/12/28 11:05:42;;;;;;;;;;;;;;;26.16;43.39;94599.38;4952625;28;8693;-62
2022/12/28 11:08:15;;;;;;;;;;;;;;;26.15;43.00;94590.34;4892860;29;8851;-63
2022/12/28 11:11:18;;;;;;;;;;;;;;;26.19;43.20;94592.81;4898074;29;7125;-62
2022/12/28 11:13:52;;;;;;;;;;;;;;;26.21;42.94;94589.56;4821918;29;7463;-62
2022/12/28 11:16:22;;;;;;;;;;;;;;;26.20;42.90;94588.81;4810509;29;7270;-63
2022/12/28 11:19:04;;;;;;;;;;;;;;;26.20;43.00;94599.09;4828012;29;9340;-63
2022/12/28 11:21:42;;;;;;;;;;;;;;;26.21;42.93;94590.28;4829747;29;9336;-62
2022/12/28 11:24:18;;;;;;;;;;;;;;;26.23;42.89;94576.00;4820818;29;7233;-62
2022/12/28 11:26:49;;;;;;;;;;;;;;;26.19;42.71;94581.78;4823183;29;7613;-63
2022/12/28 11:29:24;;;;;;;;;;;;;;;26.18;43.08;94574.78;4824581;29;7724;-60
2022/12/28 11:32:07;;;;;;;;;;;;;;;26.21;42.76;94578.53;4825960;29;7294;-62
2022/12/28 11:34:36;;;;;;;;;;;;;;;26.20;42.96;94574.28;4829222;29;7337;-62
2022/12/28 11:37:12;;;;;;;;;;;;;;;26.17;43.14;94571.28;4837278;29;7385;-61
2022/12/28 11:39:51;;;;;;;;;;;;;;;26.17;43.19;94565.75;4838233;29;7051;-62
2022/12/28 11:42:35;;;;;;;;;;;;;;;26.20;42.73;94552.22;4858439;29;7122;-63
2022/12/28 11:45:13;;;;;;;;;;;;;;;26.21;42.64;94556.47;4870984;29;7422;-62
2022/12/28 11:47:38;;;;;;;;;;;;;;;26.20;42.28;94564.00;4874466;29;9465;-62
2022/12/28 11:50:33;;;;;;;;;;;;;;;26.23;42.96;94557.44;4920339;28;7197;-62
2022/12/28 11:53:04;;;;;;;;;;;;;;;26.25;42.34;94546.69;4946507;28;7327;-63
2022/12/28 11:56:06;;;;;;;;;;;;;;;26.26;43.00;94550.91;4968615;28;7244;-62
2022/12/28 11:58:39;;;;;;;;;;;;;;;26.27;42.81;94543.41;4954430;28;7372;-63
2022/12/28 12:01:29;;;;;;;;;;;;;;;26.29;42.63;94541.63;4945147;28;9083;-62
2022/12/28 12:04:03;;;;;;;;;;;;;;;26.30;43.01;94545.13;4965398;28;8999;-63
2022/12/28 12:06:45;;;;;;;;;;;;;;;26.32;42.13;94535.06;4962820;28;7029;-62
2022/12/28 12:09:24;;;;;;;;;;;;;;;26.36;42.68;94527.28;4966176;28;7481;-62
2022/12/28 12:11:56;;;;;;;;;;;;;;;26.34;42.81;94532.56;4961609;28;7403;-62
2022/12/28 12:14:38;;;;;;;;;;;;;;;26.35;42.52;94519.53;4958906;28;7101;-62
2022/12/28 12:17:25;;;;;;;;;;;;;;;26.32;42.56;94515.06;4950889;28;8906;-63
2022/12/28 12:20:07;;;;;;;;;;;;;;;26.31;42.67;94510.78;4958520;28;7310;-63
2022/12/28 12:23:00;;;;;;;;;;;;;;;26.32;42.60;94520.56;4947299;28;7441;-62
2022/12/28 12:25:47;;;;;;;;;;;;;;;26.37;42.87;94528.78;4964632;28;7793;-63
2022/12/28 12:28:34;;;;;;;;;;;;;;;26.40;42.70;94515.97;4948610;28;7527;-62
2022/12/28 12:31:07;;;;;;;;;;;;;;;26.43;42.52;94506.66;4968212;28;7338;-61
2022/12/28 12:33:39;;;;;;;;;;;;;;;26.44;42.56;94508.19;4964756;28;7922;-63
2022/12/28 12:36:27;;;;;;;;;;;;;;;26.40;42.65;94508.47;4968627;28;9045;-63
2022/12/28 12:39:49;;;;;;;;;;;;;;;26.41;42.34;94507.19;4956775;28;8225;-62
2022/12/28 12:42:50;;;;;;;;;;;;;;;26.43;42.73;94498.38;4968070;28;9271;-62
2022/12/28 12:45:25;;;;;;;;;;;;;;;26.41;41.48;94496.16;4969498;28;7265;-63
2022/12/28 12:48:24;;;;;;;;;;;;;;;26.44;41.69;94497.91;4960631;28;7599;-62
2022/12/28 12:51:20;;;;;;;;;;;;;;;26.46;42.15;94502.91;4971222;28;7292;-62
2022/12/28 12:54:34;;;;;;;;;;;;;;;26.47;42.42;94496.84;4948261;28;7423;-63
2022/12/28 12:57:26;;;;;;;;;;;;;;;26.51;42.12;94491.06;4915089;28;7233;-60
2022/12/28 12:59:56;;;;;;;;;;;;;;;26.52;41.91;94481.53;4909803;29;7622;-62
2022/12/28 13:06:17;;;;;;;;;;;;;;;26.57;42.30;94477.97;4921124;29;8795;-63
2022/12/28 13:09:02;;;;;;;;;;;;;;;26.58;42.07;94479.47;4933429;29;7113;-62
2022/12/28 13:11:36;;;;;;;;;;;;;;;26.58;42.37;94480.22;4928506;29;7588;-62
2022/12/28 13:14:03;;;;;;;;;;;;;;;26.59;42.54;94472.69;4908781;29;7264;-63
2022/12/28 13:16:31;;;;;;;;;;;;;;;26.61;42.50;94476.44;4914650;29;7061;-64
2022/12/28 13:18:59;;;;;;;;;;;;;;;26.60;42.18;94472.16;4926958;29;7757;-63
2022/12/28 13:21:28;;;;;;;;;;;;;;;26.61;42.36;94475.69;4928976;29;7232;-62
2022/12/28 13:23:59;;;;;;;;;;;;;;;26.63;42.44;94467.63;4918020;29;7037;-61
2022/12/28 13:26:30;;;;;;;;;;;;;;;26.62;42.87;94466.88;4930665;29;7382;-62
2022/12/28 13:29:00;;;;;;;;;;;;;;;26.64;42.11;94464.34;4914106;29;7604;-60
2022/12/28 13:31:36;;;;;;;;;;;;;;;26.63;42.74;94465.63;4951675;28;8047;-62
2022/12/28 13:34:22;;;;;;;;;;;;;;;26.63;42.79;94470.38;4940171;28;7411;-62
2022/12/28 13:36:53;;;;;;;;;;;;;;;26.61;42.29;94464.66;4946632;28;7449;-62
2022/12/28 13:39:31;;;;;;;;;;;;;;;26.58;42.68;94471.19;4955819;28;9372;-63
2022/12/28 13:42:10;;;;;;;;;;;;;;;26.59;42.77;94459.66;4956988;28;7243;-62
2022/12/28 13:44:44;;;;;;;;;;;;;;;26.58;42.56;94460.16;4963522;28;8693;-63
2022/12/28 13:47:22;;;;;;;;;;;;;;;26.57;43.30;94458.66;4954828;28;7451;-63
2022/12/28 13:50:01;;;;;;;;;;;;;;;26.53;42.50;94447.94;4970249;28;7222;-63
2022/12/28 13:52:35;;;;;;;;;;;;;;;26.55;42.70;94447.41;4964822;28;8108;-63
2022/12/28 13:55:12;;;;;;;;;;;;;;;26.56;43.07;94451.63;4957757;28;7043;-63
2022/12/28 13:57:44;;;;;;;;;;;;;;;26.55;42.92;94441.88;4955486;28;9931;-62
2022/12/28 14:00:14;;;;;;;;;;;;;;;26.50;42.75;94446.19;4950313;28;7046;-63
2022/12/28 14:02:46;;;;;;;;;;;;;;;26.56;43.20;94449.63;4970880;28;7260;-63
2022/12/28 14:05:22;;;;;;;;;;;;;;;26.57;42.55;94437.34;4970107;28;8559;-63
2022/12/28 14:07:52;;;;;;;;;;;;;;;26.57;43.06;94442.13;4954230;28;6982;-63
2022/12/28 14:10:21;;;;;;;;;;;;;;;26.59;42.58;94437.56;4968484;28;7105;-63
2022/12/28 14:12:52;;;;;;;;;;;;;;;26.59;43.06;94421.03;4963661;28;7014;-63
2022/12/28 14:15:22;;;;;;;;;;;;;;;26.57;42.90;94423.56;4975635;28;7228;-62
2022/12/28 14:17:53;;;;;;;;;;;;;;;26.59;43.22;94425.78;4953771;28;6986;-62
2022/12/28 14:20:23;;;;;;;;;;;;;;;26.58;43.00;94433.31;4969895;28;7760;-62